To NAV CANADA Home Page Login to a new session Search on AWWS site Disclaimer Vers la page française équivalente Tips FAQ What's new on the site To the Forecasts and Observations / NOTAM section To "File a Flight Plan" website Publications and other links Update of the User's profile FIC Telephone Numbers My Weather Data Folder Route Weather Data Regional Weather Data Local Weather Data To the Forecasts and Observations / NOTAM section
Request Generated 03/19/2019 at 23:41:38 UTC . Weather information available at that time is displayed.

METAR/TAF

MONTREAL/PIERRE-ELLIOTT-TRUDEAU INTL/QC    

METAR CYUL 192300Z 24006KT 30SM FEW045 00/M12 A3035 RMK SC1 SC TR SLP281=
METAR CYUL 192200Z 25010KT 30SM FEW040 01/M12 A3035 RMK CU1 SLP281=
METAR CYUL 192100Z 25013G21KT 220V280 30SM FEW040 00/M14 A3036 RMK CU1 SLP283=

TAF CYUL 192338Z 2000/2024 24007KT P6SM FEW040
BECMG 2000/2002 VRB03KT
FM201200 VRB03KT P6SM SCT240
FM202100 23012KT P6SM SCT120
RMK NXT FCST BY 200300Z=
Your time UTC time
Weather data provided by Environment Canada and NAV CANADA